sensor_id;sensor_type;location;lat;lon;timestamp;P1;durP1;ratioP1;P2;durP2;ratioP2
55368;SDS011;41247;49.736;8.752;2023-04-24T00:02:43;3.78;;;1.45;;
55368;SDS011;41247;49.736;8.752;2023-04-24T00:06:27;2.22;;;1.20;;
55368;SDS011;41247;49.736;8.752;2023-04-24T00:10:08;3.15;;;1.27;;
55368;SDS011;41247;49.736;8.752;2023-04-24T00:13:49;3.60;;;1.15;;
55368;SDS011;41247;49.736;8.752;2023-04-24T00:17:30;4.47;;;1.65;;
55368;SDS011;41247;49.736;8.752;2023-04-24T00:21:11;2.78;;;1.33;;
55368;SDS011;41247;49.736;8.752;2023-04-24T00:24:51;3.20;;;1.20;;
55368;SDS011;41247;49.736;8.752;2023-04-24T00:28:33;2.55;;;1.27;;
55368;SDS011;41247;49.736;8.752;2023-04-24T00:32:13;7.63;;;1.45;;
55368;SDS011;41247;49.736;8.752;2023-04-24T00:35:54;6.10;;;1.08;;
55368;SDS011;41247;49.736;8.752;2023-04-24T00:39:35;4.40;;;1.10;;
55368;SDS011;41247;49.736;8.752;2023-04-24T00:43:16;1.25;;;0.90;;
55368;SDS011;41247;49.736;8.752;2023-04-24T00:46:57;2.75;;;1.20;;
55368;SDS011;41247;49.736;8.752;2023-04-24T00:50:39;3.35;;;1.20;;
55368;SDS011;41247;49.736;8.752;2023-04-24T00:54:20;5.32;;;1.10;;
55368;SDS011;41247;49.736;8.752;2023-04-24T00:58:01;4.35;;;1.20;;
55368;SDS011;41247;49.736;8.752;2023-04-24T01:01:41;2.67;;;1.25;;
55368;SDS011;41247;49.736;8.752;2023-04-24T01:05:23;4.68;;;1.30;;
55368;SDS011;41247;49.736;8.752;2023-04-24T01:09:04;3.50;;;1.27;;
55368;SDS011;41247;49.736;8.752;2023-04-24T01:12:45;5.10;;;1.20;;
55368;SDS011;41247;49.736;8.752;2023-04-24T01:16:26;4.10;;;1.27;;
55368;SDS011;41247;49.736;8.752;2023-04-24T01:20:06;2.47;;;1.00;;
55368;SDS011;41247;49.736;8.752;2023-04-24T01:23:47;3.05;;;1.50;;
55368;SDS011;41247;49.736;8.752;2023-04-24T01:27:28;2.40;;;1.23;;
55368;SDS011;41247;49.736;8.752;2023-04-24T01:31:09;7.95;;;1.60;;
55368;SDS011;41247;49.736;8.752;2023-04-24T01:34:49;3.20;;;1.75;;
55368;SDS011;41247;49.736;8.752;2023-04-24T01:38:31;5.22;;;1.40;;
55368;SDS011;41247;49.736;8.752;2023-04-24T01:42:11;3.22;;;1.27;;
55368;SDS011;41247;49.736;8.752;2023-04-24T01:45:53;6.38;;;1.25;;
55368;SDS011;41247;49.736;8.752;2023-04-24T01:49:33;4.55;;;1.15;;
55368;SDS011;41247;49.736;8.752;2023-04-24T01:53:14;1.98;;;0.80;;
55368;SDS011;41247;49.736;8.752;2023-04-24T01:56:55;4.38;;;1.30;;
55368;SDS011;41247;49.736;8.752;2023-04-24T02:00:36;4.75;;;1.02;;
55368;SDS011;41247;49.736;8.752;2023-04-24T02:04:16;7.65;;;1.10;;
55368;SDS011;41247;49.736;8.752;2023-04-24T02:07:57;2.90;;;0.93;;
55368;SDS011;41247;49.736;8.752;2023-04-24T02:11:37;4.72;;;1.00;;
55368;SDS011;41247;49.736;8.752;2023-04-24T02:15:18;4.53;;;0.88;;
55368;SDS011;41247;49.736;8.752;2023-04-24T02:18:58;4.15;;;1.00;;
55368;SDS011;41247;49.736;8.752;2023-04-24T02:22:39;6.20;;;1.00;;
55368;SDS011;41247;49.736;8.752;2023-04-24T02:26:20;5.13;;;1.17;;
55368;SDS011;41247;49.736;8.752;2023-04-24T02:30:00;8.10;;;1.63;;
55368;SDS011;41247;49.736;8.752;2023-04-24T02:33:41;3.30;;;1.00;;
55368;SDS011;41247;49.736;8.752;2023-04-24T02:37:21;3.97;;;1.25;;
55368;SDS011;41247;49.736;8.752;2023-04-24T02:41:02;2.75;;;1.00;;
55368;SDS011;41247;49.736;8.752;2023-04-24T02:44:43;3.70;;;1.13;;
55368;SDS011;41247;49.736;8.752;2023-04-24T02:48:23;11.60;;;1.48;;
55368;SDS011;41247;49.736;8.752;2023-04-24T02:52:04;9.55;;;1.50;;
55368;SDS011;41247;49.736;8.752;2023-04-24T02:55:44;4.05;;;1.45;;
55368;SDS011;41247;49.736;8.752;2023-04-24T02:59:25;5.47;;;2.35;;
55368;SDS011;41247;49.736;8.752;2023-04-24T03:03:05;6.90;;;2.90;;
55368;SDS011;41247;49.736;8.752;2023-04-24T03:06:46;7.47;;;3.15;;
55368;SDS011;41247;49.736;8.752;2023-04-24T03:10:27;6.95;;;3.42;;
55368;SDS011;41247;49.736;8.752;2023-04-24T03:14:07;5.95;;;4.40;;
55368;SDS011;41247;49.736;8.752;2023-04-24T03:17:48;9.50;;;5.95;;
55368;SDS011;41247;49.736;8.752;2023-04-24T03:21:28;10.88;;;4.90;;
55368;SDS011;41247;49.736;8.752;2023-04-24T03:25:09;7.70;;;4.82;;
55368;SDS011;41247;49.736;8.752;2023-04-24T03:28:50;10.73;;;5.70;;
55368;SDS011;41247;49.736;8.752;2023-04-24T03:32:30;11.57;;;5.95;;
55368;SDS011;41247;49.736;8.752;2023-04-24T03:36:11;12.95;;;5.80;;
55368;SDS011;41247;49.736;8.752;2023-04-24T03:39:51;6.93;;;4.72;;
55368;SDS011;41247;49.736;8.752;2023-04-24T03:43:35;5.57;;;3.63;;
55368;SDS011;41247;49.736;8.752;2023-04-24T03:47:16;4.15;;;3.25;;
55368;SDS011;41247;49.736;8.752;2023-04-24T03:50:56;5.47;;;3.42;;
55368;SDS011;41247;49.736;8.752;2023-04-24T03:54:37;8.77;;;3.80;;
55368;SDS011;41247;49.736;8.752;2023-04-24T03:58:17;7.38;;;4.80;;
55368;SDS011;41247;49.736;8.752;2023-04-24T04:01:58;10.82;;;4.70;;
55368;SDS011;41247;49.736;8.752;2023-04-24T04:05:39;6.85;;;4.50;;
55368;SDS011;41247;49.736;8.752;2023-04-24T04:09:20;8.07;;;5.30;;
55368;SDS011;41247;49.736;8.752;2023-04-24T04:13:00;8.93;;;5.20;;
55368;SDS011;41247;49.736;8.752;2023-04-24T04:16:41;11.32;;;5.85;;
55368;SDS011;41247;49.736;8.752;2023-04-24T04:20:22;10.13;;;5.45;;
55368;SDS011;41247;49.736;8.752;2023-04-24T04:24:02;9.57;;;6.10;;
55368;SDS011;41247;49.736;8.752;2023-04-24T04:27:43;10.32;;;6.18;;
55368;SDS011;41247;49.736;8.752;2023-04-24T04:31:24;11.65;;;6.75;;
55368;SDS011;41247;49.736;8.752;2023-04-24T04:35:04;9.40;;;6.70;;
55368;SDS011;41247;49.736;8.752;2023-04-24T04:38:45;12.48;;;6.60;;
55368;SDS011;41247;49.736;8.752;2023-04-24T04:42:26;12.07;;;7.43;;
55368;SDS011;41247;49.736;8.752;2023-04-24T04:46:06;11.40;;;7.45;;
55368;SDS011;41247;49.736;8.752;2023-04-24T04:49:47;10.65;;;7.55;;
55368;SDS011;41247;49.736;8.752;2023-04-24T04:53:27;11.15;;;7.93;;
55368;SDS011;41247;49.736;8.752;2023-04-24T04:57:08;12.05;;;8.25;;
55368;SDS011;41247;49.736;8.752;2023-04-24T05:00:50;13.25;;;7.70;;
55368;SDS011;41247;49.736;8.752;2023-04-24T05:04:30;12.70;;;8.25;;
55368;SDS011;41247;49.736;8.752;2023-04-24T05:08:11;13.00;;;8.20;;
55368;SDS011;41247;49.736;8.752;2023-04-24T05:11:51;12.30;;;7.63;;
55368;SDS011;41247;49.736;8.752;2023-04-24T05:15:32;9.70;;;6.57;;
55368;SDS011;41247;49.736;8.752;2023-04-24T05:19:13;11.63;;;7.07;;
55368;SDS011;41247;49.736;8.752;2023-04-24T05:22:54;9.10;;;7.18;;
55368;SDS011;41247;49.736;8.752;2023-04-24T05:26:34;10.88;;;7.60;;
55368;SDS011;41247;49.736;8.752;2023-04-24T05:30:15;10.63;;;7.70;;
55368;SDS011;41247;49.736;8.752;2023-04-24T05:33:56;9.20;;;7.13;;
55368;SDS011;41247;49.736;8.752;2023-04-24T05:37:36;12.38;;;8.25;;
55368;SDS011;41247;49.736;8.752;2023-04-24T05:41:17;12.98;;;7.68;;
55368;SDS011;41247;49.736;8.752;2023-04-24T05:44:57;12.13;;;7.80;;
55368;SDS011;41247;49.736;8.752;2023-04-24T05:48:38;10.35;;;7.57;;
55368;SDS011;41247;49.736;8.752;2023-04-24T05:52:19;11.43;;;7.35;;
55368;SDS011;41247;49.736;8.752;2023-04-24T05:55:59;9.27;;;7.65;;
55368;SDS011;41247;49.736;8.752;2023-04-24T05:59:40;12.13;;;8.02;;
55368;SDS011;41247;49.736;8.752;2023-04-24T06:03:21;10.43;;;8.40;;
55368;SDS011;41247;49.736;8.752;2023-04-24T06:07:02;12.68;;;8.25;;
55368;SDS011;41247;49.736;8.752;2023-04-24T06:10:42;14.45;;;8.27;;
55368;SDS011;41247;49.736;8.752;2023-04-24T06:14:23;10.82;;;8.43;;
55368;SDS011;41247;49.736;8.752;2023-04-24T06:18:03;11.85;;;8.35;;
55368;SDS011;41247;49.736;8.752;2023-04-24T06:21:44;14.00;;;9.07;;
55368;SDS011;41247;49.736;8.752;2023-04-24T06:25:25;16.95;;;9.68;;
55368;SDS011;41247;49.736;8.752;2023-04-24T06:29:06;13.00;;;10.13;;
55368;SDS011;41247;49.736;8.752;2023-04-24T06:32:47;16.63;;;9.82;;
55368;SDS011;41247;49.736;8.752;2023-04-24T06:36:27;14.43;;;9.35;;
55368;SDS011;41247;49.736;8.752;2023-04-24T06:40:08;15.82;;;10.02;;
55368;SDS011;41247;49.736;8.752;2023-04-24T06:43:49;16.30;;;10.30;;
55368;SDS011;41247;49.736;8.752;2023-04-24T06:47:30;14.18;;;9.82;;
55368;SDS011;41247;49.736;8.752;2023-04-24T06:51:11;15.75;;;10.25;;
55368;SDS011;41247;49.736;8.752;2023-04-24T06:54:51;17.45;;;9.20;;
55368;SDS011;41247;49.736;8.752;2023-04-24T06:58:32;11.90;;;9.00;;
55368;SDS011;41247;49.736;8.752;2023-04-24T07:02:15;16.65;;;9.38;;
55368;SDS011;41247;49.736;8.752;2023-04-24T07:05:55;13.88;;;8.68;;
55368;SDS011;41247;49.736;8.752;2023-04-24T07:09:36;10.85;;;7.93;;
55368;SDS011;41247;49.736;8.752;2023-04-24T07:13:17;11.25;;;7.32;;
55368;SDS011;41247;49.736;8.752;2023-04-24T07:16:57;14.05;;;7.75;;
55368;SDS011;41247;49.736;8.752;2023-04-24T07:20:38;12.35;;;7.00;;
55368;SDS011;41247;49.736;8.752;2023-04-24T07:24:18;9.70;;;7.10;;
55368;SDS011;41247;49.736;8.752;2023-04-24T07:27:59;11.50;;;6.70;;
55368;SDS011;41247;49.736;8.752;2023-04-24T07:31:40;12.18;;;6.28;;
55368;SDS011;41247;49.736;8.752;2023-04-24T07:35:20;9.88;;;5.65;;
55368;SDS011;41247;49.736;8.752;2023-04-24T07:39:01;9.23;;;5.22;;
55368;SDS011;41247;49.736;8.752;2023-04-24T07:42:42;10.18;;;5.13;;
55368;SDS011;41247;49.736;8.752;2023-04-24T07:46:22;9.52;;;5.10;;
55368;SDS011;41247;49.736;8.752;2023-04-24T07:50:03;7.55;;;4.53;;
55368;SDS011;41247;49.736;8.752;2023-04-24T07:53:45;7.47;;;4.60;;
55368;SDS011;41247;49.736;8.752;2023-04-24T07:57:25;9.73;;;4.35;;
55368;SDS011;41247;49.736;8.752;2023-04-24T08:01:06;8.57;;;4.60;;
55368;SDS011;41247;49.736;8.752;2023-04-24T08:04:47;5.60;;;4.20;;
55368;SDS011;41247;49.736;8.752;2023-04-24T08:08:27;6.82;;;4.18;;
55368;SDS011;41247;49.736;8.752;2023-04-24T08:12:08;5.93;;;4.20;;
55368;SDS011;41247;49.736;8.752;2023-04-24T08:15:49;5.07;;;3.97;;
55368;SDS011;41247;49.736;8.752;2023-04-24T08:19:29;5.03;;;4.10;;
55368;SDS011;41247;49.736;8.752;2023-04-24T08:23:10;6.93;;;4.30;;
55368;SDS011;41247;49.736;8.752;2023-04-24T08:26:51;6.03;;;3.50;;
55368;SDS011;41247;49.736;8.752;2023-04-24T08:30:32;10.02;;;3.72;;
55368;SDS011;41247;49.736;8.752;2023-04-24T08:34:12;5.07;;;3.40;;
55368;SDS011;41247;49.736;8.752;2023-04-24T08:37:53;5.82;;;3.65;;
55368;SDS011;41247;49.736;8.752;2023-04-24T08:41:34;9.73;;;4.63;;
55368;SDS011;41247;49.736;8.752;2023-04-24T08:45:15;6.57;;;4.63;;
55368;SDS011;41247;49.736;8.752;2023-04-24T08:48:56;6.88;;;4.45;;
55368;SDS011;41247;49.736;8.752;2023-04-24T08:52:37;6.68;;;3.97;;
55368;SDS011;41247;49.736;8.752;2023-04-24T08:56:18;6.90;;;4.05;;
55368;SDS011;41247;49.736;8.752;2023-04-24T08:59:59;5.63;;;3.67;;
55368;SDS011;41247;49.736;8.752;2023-04-24T09:03:41;6.45;;;4.22;;
55368;SDS011;41247;49.736;8.752;2023-04-24T09:07:24;5.15;;;3.60;;
55368;SDS011;41247;49.736;8.752;2023-04-24T09:14:48;5.05;;;4.00;;
55368;SDS011;41247;49.736;8.752;2023-04-24T09:18:29;6.88;;;3.88;;
55368;SDS011;41247;49.736;8.752;2023-04-24T09:22:10;5.47;;;4.15;;
55368;SDS011;41247;49.736;8.752;2023-04-24T09:25:54;4.95;;;4.10;;
55368;SDS011;41247;49.736;8.752;2023-04-24T09:29:36;8.30;;;4.57;;
55368;SDS011;41247;49.736;8.752;2023-04-24T09:33:16;6.93;;;4.60;;
55368;SDS011;41247;49.736;8.752;2023-04-24T09:36:57;5.10;;;4.60;;
55368;SDS011;41247;49.736;8.752;2023-04-24T09:40:37;5.50;;;4.20;;
55368;SDS011;41247;49.736;8.752;2023-04-24T09:44:20;5.63;;;4.63;;
55368;SDS011;41247;49.736;8.752;2023-04-24T09:48:03;7.13;;;4.80;;
55368;SDS011;41247;49.736;8.752;2023-04-24T09:51:43;7.05;;;4.35;;
55368;SDS011;41247;49.736;8.752;2023-04-24T09:55:24;7.70;;;4.78;;
55368;SDS011;41247;49.736;8.752;2023-04-24T09:59:06;5.75;;;4.55;;
55368;SDS011;41247;49.736;8.752;2023-04-24T10:02:49;7.88;;;5.10;;
55368;SDS011;41247;49.736;8.752;2023-04-24T10:06:34;6.93;;;4.60;;
55368;SDS011;41247;49.736;8.752;2023-04-24T10:10:15;8.00;;;5.28;;
55368;SDS011;41247;49.736;8.752;2023-04-24T10:13:56;5.70;;;4.25;;
55368;SDS011;41247;49.736;8.752;2023-04-24T10:17:37;7.35;;;4.25;;
55368;SDS011;41247;49.736;8.752;2023-04-24T10:21:19;4.72;;;3.70;;
55368;SDS011;41247;49.736;8.752;2023-04-24T10:24:59;5.07;;;3.60;;
55368;SDS011;41247;49.736;8.752;2023-04-24T10:28:46;5.93;;;3.60;;
55368;SDS011;41247;49.736;8.752;2023-04-24T10:32:28;5.28;;;3.30;;
55368;SDS011;41247;49.736;8.752;2023-04-24T10:36:11;5.03;;;2.90;;
55368;SDS011;41247;49.736;8.752;2023-04-24T10:39:53;5.80;;;2.92;;
55368;SDS011;41247;49.736;8.752;2023-04-24T10:43:35;8.38;;;3.25;;
55368;SDS011;41247;49.736;8.752;2023-04-24T10:47:15;5.75;;;3.25;;
55368;SDS011;41247;49.736;8.752;2023-04-24T10:50:56;5.45;;;2.90;;
55368;SDS011;41247;49.736;8.752;2023-04-24T10:58:23;5.15;;;3.33;;
55368;SDS011;41247;49.736;8.752;2023-04-24T11:02:16;4.65;;;2.65;;
55368;SDS011;41247;49.736;8.752;2023-04-24T11:05:59;5.75;;;3.10;;
55368;SDS011;41247;49.736;8.752;2023-04-24T11:09:48;3.75;;;2.70;;
55368;SDS011;41247;49.736;8.752;2023-04-24T11:17:40;4.35;;;3.15;;
55368;SDS011;41247;49.736;8.752;2023-04-24T11:21:22;6.70;;;3.13;;
55368;SDS011;41247;49.736;8.752;2023-04-24T11:25:03;5.60;;;3.15;;
55368;SDS011;41247;49.736;8.752;2023-04-24T11:28:45;5.28;;;3.38;;
55368;SDS011;41247;49.736;8.752;2023-04-24T11:32:33;7.30;;;3.80;;
55368;SDS011;41247;49.736;8.752;2023-04-24T11:36:16;5.90;;;3.65;;
55368;SDS011;41247;49.736;8.752;2023-04-24T11:39:59;4.00;;;3.13;;
55368;SDS011;41247;49.736;8.752;2023-04-24T11:43:39;4.60;;;3.42;;
55368;SDS011;41247;49.736;8.752;2023-04-24T11:47:31;4.65;;;3.30;;
55368;SDS011;41247;49.736;8.752;2023-04-24T11:51:12;11.40;;;4.15;;
55368;SDS011;41247;49.736;8.752;2023-04-24T11:54:53;6.95;;;3.90;;
55368;SDS011;41247;49.736;8.752;2023-04-24T11:58:35;6.07;;;3.88;;
55368;SDS011;41247;49.736;8.752;2023-04-24T12:02:23;6.05;;;3.97;;
55368;SDS011;41247;49.736;8.752;2023-04-24T12:06:08;5.72;;;3.78;;
55368;SDS011;41247;49.736;8.752;2023-04-24T12:09:57;6.95;;;4.10;;
55368;SDS011;41247;49.736;8.752;2023-04-24T12:13:39;5.55;;;4.38;;
55368;SDS011;41247;49.736;8.752;2023-04-24T12:17:27;6.88;;;4.40;;
55368;SDS011;41247;49.736;8.752;2023-04-24T12:25:03;8.88;;;4.75;;
55368;SDS011;41247;49.736;8.752;2023-04-24T12:28:46;7.10;;;4.93;;
55368;SDS011;41247;49.736;8.752;2023-04-24T12:36:10;9.70;;;5.75;;
55368;SDS011;41247;49.736;8.752;2023-04-24T12:40:00;9.25;;;6.53;;
55368;SDS011;41247;49.736;8.752;2023-04-24T12:43:51;12.30;;;7.47;;
55368;SDS011;41247;49.736;8.752;2023-04-24T12:47:33;9.93;;;6.57;;
55368;SDS011;41247;49.736;8.752;2023-04-24T12:51:14;11.27;;;6.13;;
55368;SDS011;41247;49.736;8.752;2023-04-24T12:54:59;7.15;;;5.00;;
55368;SDS011;41247;49.736;8.752;2023-04-24T12:58:40;12.18;;;5.43;;
55368;SDS011;41247;49.736;8.752;2023-04-24T13:02:21;8.45;;;5.13;;
55368;SDS011;41247;49.736;8.752;2023-04-24T13:06:03;10.20;;;5.63;;
55368;SDS011;41247;49.736;8.752;2023-04-24T13:09:43;5.93;;;5.03;;
55368;SDS011;41247;49.736;8.752;2023-04-24T13:13:26;8.38;;;5.10;;
55368;SDS011;41247;49.736;8.752;2023-04-24T13:17:07;7.13;;;5.45;;
55368;SDS011;41247;49.736;8.752;2023-04-24T13:20:47;8.52;;;4.75;;
55368;SDS011;41247;49.736;8.752;2023-04-24T13:24:28;9.27;;;5.43;;
55368;SDS011;41247;49.736;8.752;2023-04-24T13:28:08;9.35;;;4.60;;
55368;SDS011;41247;49.736;8.752;2023-04-24T13:31:53;5.45;;;4.53;;
55368;SDS011;41247;49.736;8.752;2023-04-24T13:35:34;6.03;;;4.45;;
55368;SDS011;41247;49.736;8.752;2023-04-24T13:39:15;6.95;;;4.10;;
55368;SDS011;41247;49.736;8.752;2023-04-24T13:42:55;8.77;;;4.07;;
55368;SDS011;41247;49.736;8.752;2023-04-24T13:46:36;6.50;;;3.80;;
55368;SDS011;41247;49.736;8.752;2023-04-24T13:50:16;5.50;;;4.00;;
55368;SDS011;41247;49.736;8.752;2023-04-24T13:53:57;8.35;;;3.80;;
55368;SDS011;41247;49.736;8.752;2023-04-24T13:57:38;7.32;;;4.20;;
55368;SDS011;41247;49.736;8.752;2023-04-24T14:01:18;9.40;;;4.53;;
55368;SDS011;41247;49.736;8.752;2023-04-24T14:04:59;10.25;;;5.78;;
55368;SDS011;41247;49.736;8.752;2023-04-24T14:08:40;7.85;;;4.65;;
55368;SDS011;41247;49.736;8.752;2023-04-24T14:12:20;8.77;;;4.38;;
55368;SDS011;41247;49.736;8.752;2023-04-24T14:16:01;7.45;;;4.10;;
55368;SDS011;41247;49.736;8.752;2023-04-24T14:19:41;7.80;;;4.18;;
55368;SDS011;41247;49.736;8.752;2023-04-24T14:23:22;8.25;;;4.28;;
55368;SDS011;41247;49.736;8.752;2023-04-24T14:27:03;5.88;;;4.40;;
55368;SDS011;41247;49.736;8.752;2023-04-24T14:30:43;7.28;;;4.35;;
55368;SDS011;41247;49.736;8.752;2023-04-24T14:34:24;6.15;;;3.85;;
55368;SDS011;41247;49.736;8.752;2023-04-24T14:38:05;6.88;;;3.88;;
55368;SDS011;41247;49.736;8.752;2023-04-24T14:41:45;5.22;;;3.80;;
55368;SDS011;41247;49.736;8.752;2023-04-24T14:45:26;6.30;;;3.88;;
55368;SDS011;41247;49.736;8.752;2023-04-24T14:49:07;5.30;;;3.60;;
55368;SDS011;41247;49.736;8.752;2023-04-24T14:52:48;6.32;;;3.35;;
55368;SDS011;41247;49.736;8.752;2023-04-24T14:56:29;5.57;;;3.47;;
55368;SDS011;41247;49.736;8.752;2023-04-24T15:00:10;4.70;;;3.28;;
55368;SDS011;41247;49.736;8.752;2023-04-24T15:03:51;5.78;;;3.20;;
55368;SDS011;41247;49.736;8.752;2023-04-24T15:07:31;4.00;;;3.28;;
55368;SDS011;41247;49.736;8.752;2023-04-24T15:11:12;4.15;;;3.10;;
55368;SDS011;41247;49.736;8.752;2023-04-24T15:14:52;5.85;;;3.50;;
55368;SDS011;41247;49.736;8.752;2023-04-24T15:18:33;7.00;;;3.63;;
55368;SDS011;41247;49.736;8.752;2023-04-24T15:22:14;6.60;;;3.85;;
55368;SDS011;41247;49.736;8.752;2023-04-24T15:25:54;5.78;;;3.75;;
55368;SDS011;41247;49.736;8.752;2023-04-24T15:29:35;5.22;;;3.88;;
55368;SDS011;41247;49.736;8.752;2023-04-24T15:33:16;7.55;;;3.40;;
55368;SDS011;41247;49.736;8.752;2023-04-24T15:36:56;7.82;;;3.50;;
55368;SDS011;41247;49.736;8.752;2023-04-24T15:40:37;9.52;;;4.10;;
55368;SDS011;41247;49.736;8.752;2023-04-24T15:44:18;6.30;;;3.45;;
55368;SDS011;41247;49.736;8.752;2023-04-24T15:48:00;5.55;;;3.33;;
55368;SDS011;41247;49.736;8.752;2023-04-24T15:51:41;5.40;;;3.67;;
55368;SDS011;41247;49.736;8.752;2023-04-24T15:55:21;5.25;;;3.65;;
55368;SDS011;41247;49.736;8.752;2023-04-24T15:59:02;8.23;;;4.00;;
55368;SDS011;41247;49.736;8.752;2023-04-24T16:02:42;8.15;;;4.53;;
55368;SDS011;41247;49.736;8.752;2023-04-24T16:06:23;7.18;;;4.40;;
55368;SDS011;41247;49.736;8.752;2023-04-24T16:10:04;8.27;;;4.70;;
55368;SDS011;41247;49.736;8.752;2023-04-24T16:13:45;7.68;;;5.13;;
55368;SDS011;41247;49.736;8.752;2023-04-24T16:17:25;7.30;;;4.68;;
55368;SDS011;41247;49.736;8.752;2023-04-24T16:21:06;5.82;;;3.85;;
55368;SDS011;41247;49.736;8.752;2023-04-24T16:24:47;5.95;;;3.88;;
55368;SDS011;41247;49.736;8.752;2023-04-24T16:28:27;6.20;;;4.30;;
55368;SDS011;41247;49.736;8.752;2023-04-24T16:32:09;8.23;;;4.43;;
55368;SDS011;41247;49.736;8.752;2023-04-24T16:35:50;7.15;;;4.80;;
55368;SDS011;41247;49.736;8.752;2023-04-24T16:39:30;7.18;;;4.60;;
55368;SDS011;41247;49.736;8.752;2023-04-24T16:43:11;7.85;;;4.35;;
55368;SDS011;41247;49.736;8.752;2023-04-24T16:46:52;6.90;;;4.90;;
55368;SDS011;41247;49.736;8.752;2023-04-24T16:50:32;7.07;;;5.22;;
55368;SDS011;41247;49.736;8.752;2023-04-24T16:54:13;7.75;;;5.38;;
55368;SDS011;41247;49.736;8.752;2023-04-24T16:57:53;7.05;;;5.28;;
55368;SDS011;41247;49.736;8.752;2023-04-24T17:01:34;12.63;;;6.85;;
55368;SDS011;41247;49.736;8.752;2023-04-24T17:05:15;8.82;;;5.35;;
55368;SDS011;41247;49.736;8.752;2023-04-24T17:08:56;8.23;;;4.88;;
55368;SDS011;41247;49.736;8.752;2023-04-24T17:12:36;7.43;;;4.25;;
55368;SDS011;41247;49.736;8.752;2023-04-24T17:16:17;8.35;;;4.65;;
55368;SDS011;41247;49.736;8.752;2023-04-24T17:19:58;8.43;;;5.35;;
55368;SDS011;41247;49.736;8.752;2023-04-24T17:23:38;8.48;;;5.38;;
55368;SDS011;41247;49.736;8.752;2023-04-24T17:27:19;9.15;;;4.95;;
55368;SDS011;41247;49.736;8.752;2023-04-24T17:30:59;13.20;;;6.20;;
55368;SDS011;41247;49.736;8.752;2023-04-24T17:34:40;11.85;;;5.53;;
55368;SDS011;41247;49.736;8.752;2023-04-24T17:38:21;9.55;;;5.00;;
55368;SDS011;41247;49.736;8.752;2023-04-24T17:42:01;6.40;;;4.75;;
55368;SDS011;41247;49.736;8.752;2023-04-24T17:45:46;9.38;;;5.00;;
55368;SDS011;41247;49.736;8.752;2023-04-24T17:49:28;7.85;;;5.70;;
55368;SDS011;41247;49.736;8.752;2023-04-24T17:53:09;12.55;;;6.30;;
55368;SDS011;41247;49.736;8.752;2023-04-24T17:56:49;9.60;;;6.07;;
55368;SDS011;41247;49.736;8.752;2023-04-24T18:00:33;13.23;;;7.00;;
55368;SDS011;41247;49.736;8.752;2023-04-24T18:04:15;11.05;;;6.65;;
55368;SDS011;41247;49.736;8.752;2023-04-24T18:07:55;13.02;;;6.75;;
55368;SDS011;41247;49.736;8.752;2023-04-24T18:11:37;8.35;;;5.68;;
55368;SDS011;41247;49.736;8.752;2023-04-24T18:15:17;11.60;;;6.07;;
55368;SDS011;41247;49.736;8.752;2023-04-24T18:18:58;10.27;;;5.65;;
55368;SDS011;41247;49.736;8.752;2023-04-24T18:22:39;6.53;;;4.50;;
55368;SDS011;41247;49.736;8.752;2023-04-24T18:26:20;8.40;;;5.75;;
55368;SDS011;41247;49.736;8.752;2023-04-24T18:30:01;14.20;;;7.63;;
55368;SDS011;41247;49.736;8.752;2023-04-24T18:33:42;13.88;;;9.73;;
55368;SDS011;41247;49.736;8.752;2023-04-24T18:37:22;16.98;;;10.38;;
55368;SDS011;41247;49.736;8.752;2023-04-24T18:41:03;14.68;;;9.20;;
55368;SDS011;41247;49.736;8.752;2023-04-24T18:44:44;11.82;;;7.40;;
55368;SDS011;41247;49.736;8.752;2023-04-24T18:48:24;7.57;;;4.88;;
55368;SDS011;41247;49.736;8.752;2023-04-24T18:52:05;7.07;;;4.75;;
55368;SDS011;41247;49.736;8.752;2023-04-24T18:55:46;8.00;;;5.00;;
55368;SDS011;41247;49.736;8.752;2023-04-24T18:59:26;18.33;;;9.80;;
55368;SDS011;41247;49.736;8.752;2023-04-24T19:03:07;8.68;;;5.70;;
55368;SDS011;41247;49.736;8.752;2023-04-24T19:06:47;9.48;;;6.22;;
55368;SDS011;41247;49.736;8.752;2023-04-24T19:10:28;10.70;;;6.72;;
55368;SDS011;41247;49.736;8.752;2023-04-24T19:14:09;14.35;;;7.43;;
55368;SDS011;41247;49.736;8.752;2023-04-24T19:17:49;10.73;;;6.93;;
55368;SDS011;41247;49.736;8.752;2023-04-24T19:21:30;10.68;;;7.22;;
55368;SDS011;41247;49.736;8.752;2023-04-24T19:25:10;13.27;;;7.05;;
55368;SDS011;41247;49.736;8.752;2023-04-24T19:28:51;12.68;;;8.00;;
55368;SDS011;41247;49.736;8.752;2023-04-24T19:32:32;12.70;;;7.80;;
55368;SDS011;41247;49.736;8.752;2023-04-24T19:36:13;14.55;;;8.85;;
55368;SDS011;41247;49.736;8.752;2023-04-24T19:39:56;14.02;;;8.80;;
55368;SDS011;41247;49.736;8.752;2023-04-24T19:43:37;15.18;;;8.32;;
55368;SDS011;41247;49.736;8.752;2023-04-24T19:47:18;14.65;;;7.63;;
55368;SDS011;41247;49.736;8.752;2023-04-24T19:50:59;12.90;;;8.18;;
55368;SDS011;41247;49.736;8.752;2023-04-24T19:54:40;12.75;;;8.25;;
55368;SDS011;41247;49.736;8.752;2023-04-24T19:58:21;13.07;;;7.93;;
55368;SDS011;41247;49.736;8.752;2023-04-24T20:02:01;13.48;;;8.35;;
55368;SDS011;41247;49.736;8.752;2023-04-24T20:05:42;10.70;;;7.82;;
55368;SDS011;41247;49.736;8.752;2023-04-24T20:09:23;14.27;;;8.50;;
55368;SDS011;41247;49.736;8.752;2023-04-24T20:13:03;13.77;;;7.57;;
55368;SDS011;41247;49.736;8.752;2023-04-24T20:16:44;15.13;;;9.05;;
55368;SDS011;41247;49.736;8.752;2023-04-24T20:20:25;14.05;;;9.32;;
55368;SDS011;41247;49.736;8.752;2023-04-24T20:24:06;14.27;;;9.27;;
55368;SDS011;41247;49.736;8.752;2023-04-24T20:27:47;16.40;;;9.57;;
55368;SDS011;41247;49.736;8.752;2023-04-24T20:31:27;16.85;;;9.48;;
55368;SDS011;41247;49.736;8.752;2023-04-24T20:35:08;12.90;;;8.82;;
55368;SDS011;41247;49.736;8.752;2023-04-24T20:38:49;14.95;;;9.13;;
55368;SDS011;41247;49.736;8.752;2023-04-24T20:42:30;11.02;;;8.23;;
55368;SDS011;41247;49.736;8.752;2023-04-24T20:46:11;13.85;;;7.93;;
55368;SDS011;41247;49.736;8.752;2023-04-24T20:49:52;15.45;;;9.13;;
55368;SDS011;41247;49.736;8.752;2023-04-24T20:53:32;12.20;;;8.43;;
55368;SDS011;41247;49.736;8.752;2023-04-24T20:57:13;15.57;;;8.88;;
55368;SDS011;41247;49.736;8.752;2023-04-24T21:00:54;12.80;;;9.10;;
55368;SDS011;41247;49.736;8.752;2023-04-24T21:04:35;11.43;;;8.20;;
55368;SDS011;41247;49.736;8.752;2023-04-24T21:08:15;17.00;;;8.52;;
55368;SDS011;41247;49.736;8.752;2023-04-24T21:11:56;12.23;;;8.30;;
55368;SDS011;41247;49.736;8.752;2023-04-24T21:15:37;11.50;;;8.35;;
55368;SDS011;41247;49.736;8.752;2023-04-24T21:19:17;14.32;;;7.95;;
55368;SDS011;41247;49.736;8.752;2023-04-24T21:22:58;11.45;;;8.43;;
55368;SDS011;41247;49.736;8.752;2023-04-24T21:26:39;15.15;;;8.60;;
55368;SDS011;41247;49.736;8.752;2023-04-24T21:30:19;13.95;;;9.13;;
55368;SDS011;41247;49.736;8.752;2023-04-24T21:34:00;12.32;;;8.70;;
55368;SDS011;41247;49.736;8.752;2023-04-24T21:37:40;14.57;;;9.10;;
55368;SDS011;41247;49.736;8.752;2023-04-24T21:41:21;11.32;;;8.13;;
55368;SDS011;41247;49.736;8.752;2023-04-24T21:45:02;12.68;;;8.75;;
55368;SDS011;41247;49.736;8.752;2023-04-24T21:48:43;16.25;;;9.05;;
55368;SDS011;41247;49.736;8.752;2023-04-24T21:52:24;13.85;;;8.85;;
55368;SDS011;41247;49.736;8.752;2023-04-24T21:56:05;14.10;;;9.20;;
55368;SDS011;41247;49.736;8.752;2023-04-24T21:59:45;20.35;;;11.00;;
55368;SDS011;41247;49.736;8.752;2023-04-24T22:03:26;18.05;;;10.57;;
55368;SDS011;41247;49.736;8.752;2023-04-24T22:07:07;14.10;;;9.35;;
55368;SDS011;41247;49.736;8.752;2023-04-24T22:10:48;14.68;;;8.57;;
55368;SDS011;41247;49.736;8.752;2023-04-24T22:14:31;14.00;;;9.00;;
55368;SDS011;41247;49.736;8.752;2023-04-24T22:18:11;16.50;;;9.65;;
55368;SDS011;41247;49.736;8.752;2023-04-24T22:21:52;20.00;;;10.50;;
55368;SDS011;41247;49.736;8.752;2023-04-24T22:25:33;23.58;;;10.48;;